createdAt,value
2023-03-17T00:01:31.790Z,3.63
2023-03-17T00:03:39.831Z,2.75
2023-03-17T00:05:43.808Z,3.03
2023-03-17T00:07:47.891Z,3.05
2023-03-17T00:09:51.319Z,2.40
2023-03-17T00:11:56.330Z,3.85
2023-03-17T00:13:59.805Z,2.60
2023-03-17T00:16:05.430Z,2.25
2023-03-17T00:18:13.653Z,2.10
2023-03-17T00:20:25.550Z,2.08
2023-03-17T00:22:29.057Z,1.55
2023-03-17T00:24:32.540Z,1.92
2023-03-17T00:26:36.401Z,1.77
2023-03-17T00:28:41.433Z,1.50
2023-03-17T00:30:45.131Z,1.83
2023-03-17T00:32:50.825Z,1.90
2023-03-17T00:34:54.412Z,2.17
2023-03-17T00:36:57.873Z,2.20
2023-03-17T00:39:01.695Z,1.98
2023-03-17T00:41:05.976Z,2.20
2023-03-17T00:43:09.825Z,2.17
2023-03-17T00:45:16.145Z,2.20
2023-03-17T00:47:19.495Z,2.03
2023-03-17T00:49:24.917Z,2.38
2023-03-17T00:51:28.377Z,2.30
2023-03-17T00:53:31.861Z,2.50
2023-03-17T00:55:35.414Z,2.42
2023-03-17T00:57:40.246Z,1.83
2023-03-17T00:59:43.862Z,1.70
2023-03-17T01:01:49.365Z,1.70
2023-03-17T01:03:52.934Z,2.40
2023-03-17T01:05:57.964Z,1.50
2023-03-17T01:08:01.504Z,1.98
2023-03-17T01:10:06.749Z,1.73
2023-03-17T01:12:13.853Z,1.90
2023-03-17T01:14:18.119Z,2.75
2023-03-17T01:16:21.777Z,1.58
2023-03-17T01:18:27.432Z,2.67
2023-03-17T01:20:33.226Z,2.38
2023-03-17T01:22:36.716Z,1.50
2023-03-17T01:24:40.440Z,1.90
2023-03-17T01:26:44.018Z,1.80
2023-03-17T01:28:47.593Z,1.58
2023-03-17T01:30:51.484Z,2.00
2023-03-17T01:32:55.763Z,1.50
2023-03-17T01:35:00.596Z,1.55
2023-03-17T01:37:04.407Z,1.80
2023-03-17T01:39:08.031Z,1.60
2023-03-17T01:41:12.767Z,1.70
2023-03-17T01:43:22.674Z,2.20
2023-03-17T01:46:02.984Z,1.65
2023-03-17T01:48:06.691Z,2.10
2023-03-17T01:50:12.402Z,4.32
2023-03-17T01:52:18.076Z,5.28
2023-03-17T01:54:27.306Z,6.35
2023-03-17T01:56:31.795Z,3.72
2023-03-17T01:58:35.592Z,3.90
2023-03-17T02:00:39.947Z,3.25
2023-03-17T02:02:46.525Z,3.05
2023-03-17T02:04:52.430Z,2.85
2023-03-17T02:06:59.080Z,2.50
2023-03-17T02:09:03.130Z,2.10
2023-03-17T02:11:07.250Z,1.75
2023-03-17T02:13:12.455Z,1.95
2023-03-17T02:15:16.392Z,2.47
2023-03-17T02:17:20.260Z,3.53
2023-03-17T02:19:23.800Z,3.80
2023-03-17T02:21:47.853Z,3.58
2023-03-17T02:23:51.729Z,3.60
2023-03-17T02:25:55.858Z,3.28
2023-03-17T02:28:03.541Z,2.35
2023-03-17T02:30:09.400Z,2.35
2023-03-17T02:32:13.493Z,2.00
2023-03-17T02:34:17.196Z,2.30
2023-03-17T02:36:20.618Z,1.85
2023-03-17T02:38:26.523Z,1.98
2023-03-17T02:40:30.365Z,2.05
2023-03-17T02:42:34.459Z,2.67
2023-03-17T02:44:38.567Z,1.88
2023-03-17T02:46:42.651Z,2.78
2023-03-17T02:48:47.793Z,2.95
2023-03-17T02:50:51.616Z,2.00
2023-03-17T02:52:55.308Z,2.20
2023-03-17T02:55:00.440Z,2.28
2023-03-17T02:57:04.044Z,1.70
2023-03-17T02:59:08.643Z,2.75
2023-03-17T03:01:12.105Z,2.17
2023-03-17T03:03:15.652Z,2.25
2023-03-17T03:05:19.942Z,2.53
2023-03-17T03:07:24.171Z,2.58
2023-03-17T03:09:27.789Z,2.38
2023-03-17T03:11:32.708Z,2.78
2023-03-17T03:13:36.839Z,2.83
2023-03-17T03:15:43.106Z,2.60
2023-03-17T03:17:46.800Z,2.83
2023-03-17T03:19:50.591Z,2.42
2023-03-17T03:21:54.074Z,2.85
2023-03-17T03:23:57.872Z,2.45
2023-03-17T03:26:01.317Z,2.88
2023-03-17T03:28:06.813Z,2.83
2023-03-17T03:30:11.947Z,2.00
2023-03-17T03:32:15.515Z,2.20
2023-03-17T03:34:22.522Z,2.58
2023-03-17T03:36:26.929Z,2.50
2023-03-17T03:38:30.723Z,2.20
2023-03-17T03:40:34.129Z,2.47
2023-03-17T03:42:37.724Z,2.30
2023-03-17T03:44:42.657Z,2.70
2023-03-17T03:46:46.368Z,2.35
2023-03-17T03:48:50.080Z,2.60
2023-03-17T03:50:58.270Z,2.45
2023-03-17T03:53:01.644Z,2.92
2023-03-17T03:55:05.742Z,2.50
2023-03-17T03:57:09.344Z,2.42
2023-03-17T03:59:12.945Z,2.15
2023-03-17T04:01:18.534Z,2.28
2023-03-17T04:03:22.087Z,2.72
2023-03-17T04:05:25.684Z,3.67
2023-03-17T04:07:29.174Z,2.10
2023-03-17T04:09:32.878Z,2.20
2023-03-17T04:11:36.596Z,2.20
2023-03-17T04:13:40.052Z,2.30
2023-03-17T04:15:43.768Z,2.90
2023-03-17T04:17:48.775Z,2.00
2023-03-17T04:19:52.463Z,1.85
2023-03-17T04:21:56.274Z,1.83
2023-03-17T04:24:00.212Z,2.45
2023-03-17T04:26:04.207Z,2.10
2023-03-17T04:28:09.143Z,2.45
2023-03-17T04:30:14.861Z,1.88
2023-03-17T04:32:18.687Z,2.08
2023-03-17T04:34:24.309Z,2.13
2023-03-17T04:36:28.213Z,2.65
2023-03-17T04:38:31.718Z,2.58
2023-03-17T04:40:35.132Z,2.00
2023-03-17T04:42:39.168Z,1.42
2023-03-17T04:44:43.153Z,2.55
2023-03-17T04:46:47.051Z,1.80
2023-03-17T04:48:50.418Z,1.80
2023-03-17T04:50:55.356Z,1.42
2023-03-17T04:52:59.273Z,1.55
2023-03-17T04:55:03.055Z,1.70
2023-03-17T04:57:06.868Z,2.00
2023-03-17T04:59:10.336Z,2.33
2023-03-17T05:01:13.828Z,2.13
2023-03-17T05:03:26.723Z,2.28
2023-03-17T05:05:30.839Z,2.53
2023-03-17T05:07:35.679Z,2.35
2023-03-17T05:09:39.621Z,2.38
2023-03-17T05:11:43.186Z,2.53
2023-03-17T05:13:47.117Z,2.65
2023-03-17T05:15:51.648Z,2.58
2023-03-17T05:17:55.183Z,3.20
2023-03-17T05:19:58.688Z,2.38
2023-03-17T05:22:02.154Z,2.42
2023-03-17T05:24:07.889Z,2.30
2023-03-17T05:26:11.569Z,2.35
2023-03-17T05:28:15.474Z,2.38
2023-03-17T05:30:19.420Z,2.45
2023-03-17T05:32:23.358Z,2.67
2023-03-17T05:34:27.163Z,2.65
2023-03-17T05:36:30.657Z,2.85
2023-03-17T05:38:34.185Z,3.25
2023-03-17T05:40:39.492Z,2.80
2023-03-17T05:42:43.191Z,3.45
2023-03-17T05:44:47.016Z,3.95
2023-03-17T05:46:50.417Z,4.18
2023-03-17T05:48:54.204Z,4.05
2023-03-17T05:50:57.656Z,3.20
2023-03-17T05:53:01.067Z,4.50
2023-03-17T05:55:04.929Z,4.55
2023-03-17T05:57:10.239Z,3.83
2023-03-17T05:59:15.772Z,4.72
2023-03-17T06:01:19.271Z,4.55
2023-03-17T06:03:23.071Z,4.88
2023-03-17T06:05:26.510Z,4.28
2023-03-17T06:07:41.122Z,3.50
2023-03-17T06:09:48.335Z,4.43
2023-03-17T06:11:52.164Z,3.42
2023-03-17T06:13:57.286Z,3.70
2023-03-17T06:16:00.805Z,3.35
2023-03-17T06:18:05.295Z,3.97
2023-03-17T06:20:10.338Z,3.78
2023-03-17T06:22:13.938Z,3.83
2023-03-17T06:24:17.589Z,4.90
2023-03-17T06:26:21.339Z,3.40
2023-03-17T06:28:25.374Z,3.45
2023-03-17T06:30:30.760Z,3.30
2023-03-17T06:32:34.692Z,3.38
2023-03-17T06:34:38.724Z,3.50
2023-03-17T06:36:43.375Z,3.10
2023-03-17T06:38:47.411Z,2.53
2023-03-17T06:40:51.002Z,2.63
2023-03-17T06:42:54.640Z,2.25
2023-03-17T06:44:58.402Z,3.53
2023-03-17T06:47:03.429Z,3.70
2023-03-17T06:49:08.259Z,3.92
2023-03-17T06:51:11.959Z,3.80
2023-03-17T06:53:15.800Z,3.28
2023-03-17T06:55:19.534Z,3.85
2023-03-17T06:57:23.257Z,5.05
2023-03-17T06:59:27.644Z,4.35
2023-03-17T07:01:31.252Z,3.35
2023-03-17T07:03:38.197Z,3.90
2023-03-17T07:05:42.205Z,2.90
2023-03-17T07:07:46.123Z,3.22
2023-03-17T07:09:49.765Z,3.42
2023-03-17T07:11:53.700Z,4.03
2023-03-17T07:13:57.651Z,3.37
2023-03-17T07:16:01.272Z,4.07
2023-03-17T07:18:05.152Z,2.77
2023-03-17T07:20:11.745Z,3.10
2023-03-17T07:22:15.543Z,3.33
2023-03-17T07:24:19.110Z,3.57
2023-03-17T07:26:22.750Z,2.50
2023-03-17T07:28:26.895Z,3.20
2023-03-17T07:30:30.576Z,3.17
2023-03-17T07:32:35.569Z,2.90
2023-03-17T07:34:39.545Z,2.90
2023-03-17T07:36:44.837Z,3.17
2023-03-17T07:38:48.732Z,3.30
2023-03-17T07:40:53.233Z,3.20
2023-03-17T07:42:56.827Z,3.43
2023-03-17T07:45:00.762Z,3.23
2023-03-17T07:47:04.431Z,2.40
2023-03-17T07:49:09.561Z,3.10
2023-03-17T07:51:14.797Z,3.03
2023-03-17T07:53:19.872Z,3.00
2023-03-17T07:55:23.475Z,3.73
2023-03-17T07:57:27.329Z,2.93
2023-03-17T07:59:31.735Z,3.23
2023-03-17T08:01:35.706Z,3.50
2023-03-17T08:03:41.507Z,3.07
2023-03-17T08:05:45.742Z,3.17
2023-03-17T08:07:50.394Z,3.60
2023-03-17T08:09:56.076Z,4.30
2023-03-17T08:11:59.771Z,4.00
2023-03-17T08:14:06.818Z,3.70
2023-03-17T08:16:20.902Z,3.87
2023-03-17T08:18:24.799Z,3.70
2023-03-17T08:20:28.761Z,2.60
2023-03-17T08:22:32.851Z,3.57
2023-03-17T08:24:37.396Z,4.30
2023-03-17T08:26:43.497Z,4.50
2023-03-17T08:28:47.349Z,3.40
2023-03-17T08:30:51.363Z,4.40
2023-03-17T08:32:55.146Z,5.87
2023-03-17T08:34:58.999Z,3.53
2023-03-17T08:37:03.357Z,4.17
2023-03-17T08:39:07.694Z,3.93
2023-03-17T08:41:12.458Z,5.13
2023-03-17T08:43:18.983Z,3.30
2023-03-17T08:45:24.153Z,4.40
2023-03-17T08:47:28.681Z,3.73
2023-03-17T08:49:34.996Z,4.30
2023-03-17T08:51:39.555Z,4.40
2023-03-17T08:53:43.553Z,4.17
2023-03-17T08:55:47.098Z,4.20
2023-03-17T08:57:51.371Z,4.30
2023-03-17T08:59:56.881Z,4.67
2023-03-17T09:02:00.691Z,4.43
2023-03-17T09:04:04.426Z,4.83
2023-03-17T09:06:08.243Z,4.50
2023-03-17T09:08:12.084Z,4.67
2023-03-17T09:10:16.976Z,4.53
2023-03-17T09:12:23.007Z,4.53
2023-03-17T09:14:27.688Z,4.53
2023-03-17T09:16:34.229Z,4.93
2023-03-17T09:18:38.014Z,4.87
2023-03-17T09:20:41.809Z,4.13
2023-03-17T09:22:45.426Z,4.30
2023-03-17T09:24:49.459Z,4.13
2023-03-17T09:26:53.086Z,3.40
2023-03-17T09:28:57.198Z,4.07
2023-03-17T09:31:01.425Z,4.73
2023-03-17T09:33:06.704Z,4.80
2023-03-17T09:35:10.963Z,5.17
2023-03-17T09:37:14.686Z,4.33
2023-03-17T09:39:20.909Z,4.90
2023-03-17T09:41:41.417Z,5.23
2023-03-17T09:43:48.826Z,5.23
2023-03-17T09:45:53.444Z,4.50
2023-03-17T09:48:06.143Z,5.20
2023-03-17T09:50:16.082Z,5.10
2023-03-17T09:52:23.367Z,4.70
2023-03-17T09:54:28.703Z,5.30
2023-03-17T09:56:33.734Z,4.90
2023-03-17T09:58:38.681Z,4.97
2023-03-17T10:00:42.457Z,4.93
2023-03-17T10:02:47.334Z,5.27
2023-03-17T10:04:51.906Z,4.50
2023-03-17T10:07:00.426Z,5.07
2023-03-17T10:09:18.862Z,5.30
2023-03-17T10:11:26.570Z,5.47
2023-03-17T10:13:34.254Z,5.20
2023-03-17T10:15:41.428Z,4.70
2023-03-17T10:17:46.257Z,5.60
2023-03-17T10:19:54.461Z,5.10
2023-03-17T10:22:00.822Z,5.17
2023-03-17T10:24:05.354Z,4.60
2023-03-17T10:26:10.292Z,4.80
2023-03-17T10:28:22.958Z,4.57
2023-03-17T10:30:27.572Z,4.40
2023-03-17T10:32:33.195Z,4.30
2023-03-17T10:34:38.095Z,5.37
2023-03-17T10:36:44.453Z,4.90
2023-03-17T10:38:55.326Z,5.00
2023-03-17T10:41:00.204Z,5.17
2023-03-17T10:43:08.023Z,4.37
2023-03-17T10:45:17.055Z,4.70
2023-03-17T10:47:33.408Z,4.70
2023-03-17T10:49:37.891Z,4.83
2023-03-17T10:51:42.198Z,4.03
2023-03-17T10:53:45.890Z,3.93
2023-03-17T10:55:52.146Z,4.93
2023-03-17T10:57:59.707Z,5.20
2023-03-17T11:00:05.173Z,4.90
2023-03-17T11:02:09.596Z,5.10
2023-03-17T11:04:30.172Z,4.17
2023-03-17T11:06:36.529Z,4.60
2023-03-17T11:08:41.772Z,4.30
2023-03-17T11:10:45.978Z,4.20
2023-03-17T11:12:52.061Z,4.60
2023-03-17T11:15:01.358Z,4.73
2023-03-17T11:17:06.308Z,5.70
2023-03-17T11:19:13.698Z,5.00
2023-03-17T11:21:21.772Z,5.37
2023-03-17T11:23:33.086Z,4.97
2023-03-17T11:25:41.262Z,4.90
2023-03-17T11:27:48.105Z,3.87
2023-03-17T11:29:58.052Z,4.40
2023-03-17T11:32:04.622Z,4.40
2023-03-17T11:34:10.674Z,4.50
2023-03-17T11:36:21.069Z,4.60
2023-03-17T11:38:26.782Z,4.23
2023-03-17T11:40:32.763Z,3.70
2023-03-17T11:42:39.884Z,4.30
2023-03-17T11:45:04.241Z,4.13
2023-03-17T11:47:14.294Z,3.47
2023-03-17T11:49:20.495Z,4.07
2023-03-17T11:51:30.557Z,4.93
2023-03-17T11:53:54.777Z,5.33
2023-03-17T11:56:01.530Z,5.20
2023-03-17T11:58:09.546Z,5.40
2023-03-17T12:00:19.114Z,5.30
2023-03-17T12:02:25.420Z,5.30
2023-03-17T12:04:34.606Z,4.70
2023-03-17T12:06:40.572Z,4.90
2023-03-17T12:08:45.986Z,4.20
2023-03-17T12:10:51.734Z,5.00
2023-03-17T12:12:58.719Z,5.30
2023-03-17T12:15:05.348Z,4.20
2023-03-17T12:17:12.615Z,4.30
2023-03-17T12:19:19.851Z,4.23
2023-03-17T12:21:27.287Z,4.03
2023-03-17T12:23:33.434Z,4.43
2023-03-17T12:25:40.616Z,4.27
2023-03-17T12:27:46.718Z,3.60
2023-03-17T12:29:53.485Z,4.80
2023-03-17T12:32:00.316Z,4.00
2023-03-17T12:34:06.627Z,3.73
2023-03-17T12:36:14.908Z,4.50
2023-03-17T12:38:21.447Z,3.50
2023-03-17T12:40:27.443Z,3.57
2023-03-17T12:42:38.205Z,4.07
2023-03-17T12:44:52.044Z,3.60
2023-03-17T12:47:03.113Z,3.60
2023-03-17T12:49:18.378Z,3.57
2023-03-17T12:51:40.172Z,3.50
2023-03-17T12:53:46.564Z,3.53
2023-03-17T12:55:53.331Z,3.10
2023-03-17T12:58:03.794Z,3.10
2023-03-17T13:00:09.204Z,3.30
2023-03-17T13:02:18.653Z,4.40
2023-03-17T13:04:27.026Z,3.67
2023-03-17T13:06:32.309Z,3.40
2023-03-17T13:08:36.727Z,4.10
2023-03-17T13:10:48.123Z,5.40
2023-03-17T13:13:00.545Z,4.50
2023-03-17T13:15:04.089Z,4.27
2023-03-17T13:17:28.703Z,3.87
2023-03-17T13:19:34.263Z,4.97
2023-03-17T13:21:39.127Z,4.13
2023-03-17T13:23:44.205Z,5.20
2023-03-17T13:25:54.020Z,4.73
2023-03-17T13:28:03.236Z,4.00
2023-03-17T13:30:22.212Z,3.87
2023-03-17T13:32:36.302Z,5.10
2023-03-17T13:34:47.212Z,3.53
2023-03-17T13:36:58.134Z,3.80
2023-03-17T13:39:23.551Z,4.83
2023-03-17T13:41:40.535Z,4.00
2023-03-17T13:43:51.885Z,4.50
2023-03-17T13:45:57.573Z,4.40
2023-03-17T13:48:27.142Z,4.80
2023-03-17T13:50:33.100Z,5.03
2023-03-17T13:52:41.196Z,4.77
2023-03-17T13:54:49.279Z,5.00
2023-03-17T13:56:55.186Z,4.70
2023-03-17T13:59:09.694Z,5.27
2023-03-17T14:01:15.015Z,5.07
2023-03-17T14:03:21.835Z,5.37
2023-03-17T14:05:27.243Z,4.17
2023-03-17T14:07:33.302Z,4.67
2023-03-17T14:09:39.540Z,6.27
2023-03-17T14:11:43.357Z,5.57
2023-03-17T14:13:50.729Z,4.70
2023-03-17T14:15:57.146Z,4.00
2023-03-17T14:18:03.115Z,5.60
2023-03-17T14:20:08.841Z,4.90
2023-03-17T14:22:22.521Z,4.90
2023-03-17T14:24:26.893Z,6.20
2023-03-17T14:26:31.662Z,4.93
2023-03-17T14:28:36.050Z,5.27
2023-03-17T14:30:41.202Z,6.77
2023-03-17T14:32:48.161Z,5.67
2023-03-17T14:34:55.978Z,5.30
2023-03-17T14:37:02.043Z,5.20
2023-03-17T14:39:11.735Z,4.63
2023-03-17T14:41:20.420Z,5.50
2023-03-17T14:43:25.185Z,5.50
2023-03-17T14:45:31.107Z,4.73
2023-03-17T14:47:38.998Z,4.90
2023-03-17T14:49:42.642Z,4.73
2023-03-17T14:51:46.563Z,5.17
2023-03-17T14:53:50.259Z,4.83
2023-03-17T14:55:54.866Z,4.90
2023-03-17T14:57:58.424Z,5.20
2023-03-17T15:00:04.311Z,5.90
2023-03-17T15:02:19.718Z,5.50
2023-03-17T15:04:26.580Z,5.30
2023-03-17T15:06:30.830Z,5.77
2023-03-17T15:08:42.769Z,5.73
2023-03-17T15:10:47.542Z,4.70
2023-03-17T15:12:51.338Z,5.67
2023-03-17T15:14:55.790Z,5.83
2023-03-17T15:16:59.700Z,5.20
2023-03-17T15:19:07.939Z,5.50
2023-03-17T15:21:24.978Z,5.37
2023-03-17T15:23:31.098Z,6.40
2023-03-17T15:25:36.443Z,6.23
2023-03-17T15:27:40.078Z,5.80
2023-03-17T15:29:43.606Z,5.20
2023-03-17T15:31:47.202Z,5.13
2023-03-17T15:33:51.275Z,5.90
2023-03-17T15:35:56.533Z,5.17
2023-03-17T15:38:01.787Z,5.00
2023-03-17T15:40:06.614Z,5.00
2023-03-17T15:42:10.363Z,5.50
2023-03-17T15:44:14.322Z,4.90
2023-03-17T15:46:22.699Z,5.13
2023-03-17T15:48:27.904Z,5.63
2023-03-17T15:50:33.373Z,5.20
2023-03-17T15:52:37.887Z,5.90
2023-03-17T15:54:43.140Z,5.23
2023-03-17T15:56:46.718Z,4.30
2023-03-17T15:58:55.079Z,4.83
2023-03-17T16:00:59.788Z,5.97
2023-03-17T16:03:08.988Z,4.53
2023-03-17T16:05:17.058Z,5.30
2023-03-17T16:07:21.755Z,5.47
2023-03-17T16:09:25.379Z,5.63
2023-03-17T16:11:31.707Z,4.70
2023-03-17T16:13:35.408Z,5.33
2023-03-17T16:15:39.865Z,4.93
2023-03-17T16:17:43.857Z,5.27
2023-03-17T16:19:48.102Z,5.57
2023-03-17T16:21:52.052Z,4.43
2023-03-17T16:23:56.257Z,4.70
2023-03-17T16:26:13.715Z,4.20
2023-03-17T16:28:20.966Z,4.53
2023-03-17T16:30:25.373Z,5.00
2023-03-17T16:32:29.087Z,4.43
2023-03-17T16:34:33.015Z,5.07
2023-03-17T16:36:36.691Z,5.70
2023-03-17T16:38:40.309Z,5.10
2023-03-17T16:40:43.881Z,5.00
2023-03-17T16:42:48.671Z,5.73
2023-03-17T16:44:53.889Z,4.90
2023-03-17T16:46:57.668Z,5.20
2023-03-17T16:49:01.977Z,4.40
2023-03-17T16:51:05.990Z,5.37
2023-03-17T16:53:09.947Z,5.13
2023-03-17T16:55:13.768Z,4.73
2023-03-17T16:57:17.258Z,5.20
2023-03-17T16:59:21.937Z,4.77
2023-03-17T17:01:27.566Z,4.57
2023-03-17T17:03:31.447Z,4.78
2023-03-17T17:05:35.168Z,3.93
2023-03-17T17:07:38.744Z,4.57
2023-03-17T17:09:42.637Z,4.40
2023-03-17T17:11:46.600Z,4.47
2023-03-17T17:13:51.858Z,5.15
2023-03-17T17:15:55.889Z,4.25
2023-03-17T17:18:02.574Z,3.70
2023-03-17T17:20:07.450Z,4.97
2023-03-17T17:22:12.833Z,5.90
2023-03-17T17:24:17.031Z,6.60
2023-03-17T17:26:20.859Z,8.40
2023-03-17T17:28:25.884Z,16.13
2023-03-17T17:30:30.862Z,19.02
2023-03-17T17:32:34.820Z,18.23
2023-03-17T17:34:39.993Z,17.42
2023-03-17T17:36:43.636Z,17.60
2023-03-17T17:38:47.436Z,18.15
2023-03-17T17:40:51.652Z,18.40
2023-03-17T17:42:55.652Z,16.30
2023-03-17T17:44:59.716Z,14.25
2023-03-17T17:47:03.302Z,14.30
2023-03-17T17:49:07.200Z,8.80
2023-03-17T17:51:12.298Z,7.55
2023-03-17T17:53:16.095Z,8.52
2023-03-17T17:55:19.913Z,6.70
2023-03-17T17:57:23.597Z,5.97
2023-03-17T17:59:27.421Z,9.27
2023-03-17T18:01:31.201Z,11.00
2023-03-17T18:03:35.012Z,6.88
2023-03-17T18:05:38.734Z,10.82
2023-03-17T18:07:43.755Z,9.88
2023-03-17T18:09:47.428Z,8.70
2023-03-17T18:11:51.334Z,9.07
2023-03-17T18:13:55.060Z,8.40
2023-03-17T18:15:58.767Z,7.07
2023-03-17T18:18:02.545Z,8.57
2023-03-17T18:20:06.850Z,8.65
2023-03-17T18:22:11.569Z,7.50
2023-03-17T18:24:17.526Z,6.28
2023-03-17T18:26:21.727Z,6.53
2023-03-17T18:28:25.299Z,6.95
2023-03-17T18:30:31.054Z,10.00
2023-03-17T18:32:34.811Z,8.90
2023-03-17T18:34:43.436Z,8.07
2023-03-17T18:36:48.117Z,6.60
2023-03-17T18:38:51.804Z,8.00
2023-03-17T18:40:56.843Z,12.45
2023-03-17T18:43:01.183Z,11.63
2023-03-17T18:45:07.026Z,12.30
2023-03-17T18:47:10.775Z,12.15
2023-03-17T18:49:14.375Z,9.48
2023-03-17T18:51:18.125Z,7.65
2023-03-17T18:53:22.216Z,7.10
2023-03-17T18:55:25.779Z,7.10
2023-03-17T18:57:31.393Z,6.35
2023-03-17T18:59:34.994Z,8.35
2023-03-17T19:01:38.777Z,7.00
2023-03-17T19:03:42.356Z,5.93
2023-03-17T19:05:46.149Z,5.50
2023-03-17T19:07:50.358Z,5.93
2023-03-17T19:09:53.970Z,5.50
2023-03-17T19:11:57.675Z,7.20
2023-03-17T19:14:02.779Z,8.13
2023-03-17T19:16:07.654Z,7.43
2023-03-17T19:18:11.530Z,7.07
2023-03-17T19:20:16.852Z,11.50
2023-03-17T19:22:20.574Z,10.80
2023-03-17T19:24:24.164Z,10.32
2023-03-17T19:26:30.437Z,10.55
2023-03-17T19:28:34.534Z,11.90
2023-03-17T19:30:40.529Z,9.00
2023-03-17T19:32:44.212Z,11.05
2023-03-17T19:34:48.934Z,9.75
2023-03-17T19:36:52.813Z,10.57
2023-03-17T19:39:00.419Z,9.30
2023-03-17T19:41:04.097Z,9.48
2023-03-17T19:43:07.695Z,11.18
2023-03-17T19:45:12.229Z,10.52
2023-03-17T19:47:17.259Z,22.35
2023-03-17T19:49:21.346Z,17.65
2023-03-17T19:51:25.031Z,14.15
2023-03-17T19:53:28.582Z,13.45
2023-03-17T19:55:32.609Z,11.25
2023-03-17T19:57:36.587Z,9.77
2023-03-17T19:59:40.549Z,11.38
2023-03-17T20:01:44.334Z,10.35
2023-03-17T20:03:49.516Z,10.10
2023-03-17T20:05:54.023Z,10.45
2023-03-17T20:07:57.713Z,8.52
2023-03-17T20:10:01.409Z,8.27
2023-03-17T20:12:05.945Z,7.97
2023-03-17T20:14:09.649Z,8.35
2023-03-17T20:16:13.779Z,7.50
2023-03-17T20:18:18.817Z,9.27
2023-03-17T20:20:24.357Z,7.85
2023-03-17T20:22:27.933Z,6.78
2023-03-17T20:24:31.656Z,6.65
2023-03-17T20:26:35.396Z,7.35
2023-03-17T20:28:39.322Z,6.38
2023-03-17T20:30:44.064Z,6.70
2023-03-17T20:32:48.389Z,7.32
2023-03-17T20:34:52.246Z,9.80
2023-03-17T20:36:57.204Z,6.28
2023-03-17T20:39:01.263Z,7.15
2023-03-17T20:41:09.277Z,7.22
2023-03-17T20:43:13.021Z,7.63
2023-03-17T20:45:16.611Z,7.65
2023-03-17T20:47:20.909Z,8.82
2023-03-17T20:49:25.570Z,6.45
2023-03-17T20:51:29.242Z,6.05
2023-03-17T20:53:34.427Z,6.53
2023-03-17T20:55:38.084Z,6.30
2023-03-17T20:57:41.990Z,5.10
2023-03-17T20:59:45.645Z,6.00
2023-03-17T21:01:50.201Z,7.70
2023-03-17T21:03:54.116Z,6.75
2023-03-17T21:05:57.671Z,7.75
2023-03-17T21:08:01.505Z,5.22
2023-03-17T21:10:06.841Z,4.97
2023-03-17T21:12:13.586Z,5.55
2023-03-17T21:14:17.518Z,5.10
2023-03-17T21:16:22.516Z,5.57
2023-03-17T21:18:26.146Z,5.47
2023-03-17T21:20:30.219Z,9.25
2023-03-17T21:22:34.363Z,11.70
2023-03-17T21:24:40.113Z,17.13
2023-03-17T21:26:45.346Z,18.13
2023-03-17T21:28:49.671Z,22.17
2023-03-17T21:30:53.341Z,17.05
2023-03-17T21:32:57.109Z,11.20
2023-03-17T21:35:01.444Z,9.20
2023-03-17T21:37:05.348Z,7.50
2023-03-17T21:39:09.710Z,5.85
2023-03-17T21:41:23.554Z,6.13
2023-03-17T21:43:29.061Z,5.10
2023-03-17T21:45:33.001Z,5.20
2023-03-17T21:47:36.849Z,5.28
2023-03-17T21:49:41.349Z,5.78
2023-03-17T21:51:45.370Z,5.20
2023-03-17T21:53:49.323Z,5.68
2023-03-17T21:55:52.915Z,4.88
2023-03-17T21:57:56.842Z,6.28
2023-03-17T22:00:01.824Z,6.05
2023-03-17T22:02:05.567Z,5.68
2023-03-17T22:04:09.461Z,6.80
2023-03-17T22:06:13.872Z,4.75
2023-03-17T22:08:17.367Z,5.60
2023-03-17T22:10:21.950Z,6.45
2023-03-17T22:12:25.685Z,6.07
2023-03-17T22:14:29.465Z,6.32
2023-03-17T22:16:34.657Z,6.10
2023-03-17T22:18:38.689Z,6.90
2023-03-17T22:20:42.409Z,6.18
2023-03-17T22:22:46.027Z,6.97
2023-03-17T22:24:49.722Z,6.63
2023-03-17T22:26:53.406Z,6.97
2023-03-17T22:28:56.985Z,5.57
2023-03-17T22:31:00.559Z,6.10
2023-03-17T22:33:06.498Z,6.68
2023-03-17T22:35:11.273Z,5.90
2023-03-17T22:37:14.855Z,6.35
2023-03-17T22:39:18.397Z,5.82
2023-03-17T22:41:22.851Z,6.53
2023-03-17T22:43:27.564Z,7.63
2023-03-17T22:45:31.138Z,7.22
2023-03-17T22:47:34.795Z,7.18
2023-03-17T22:49:40.082Z,6.60
2023-03-17T22:51:43.590Z,6.57
2023-03-17T22:53:47.653Z,6.00
2023-03-17T22:55:51.369Z,7.03
2023-03-17T22:57:54.969Z,6.63
2023-03-17T22:59:59.303Z,6.90
2023-03-17T23:02:03.046Z,7.38
2023-03-17T23:04:07.083Z,6.63
2023-03-17T23:06:13.202Z,7.88
2023-03-17T23:08:16.754Z,7.88
2023-03-17T23:10:24.510Z,7.88
2023-03-17T23:12:28.679Z,6.28
2023-03-17T23:14:32.487Z,6.25
2023-03-17T23:16:37.894Z,5.80
2023-03-17T23:18:41.617Z,6.75
2023-03-17T23:20:45.815Z,6.65
2023-03-17T23:22:50.842Z,6.47
2023-03-17T23:24:54.355Z,5.82
2023-03-17T23:26:57.960Z,5.82
2023-03-17T23:29:02.008Z,6.63
2023-03-17T23:31:05.705Z,6.85
2023-03-17T23:33:09.709Z,6.55
2023-03-17T23:35:14.275Z,5.40
2023-03-17T23:37:17.855Z,5.00
2023-03-17T23:39:23.121Z,7.00
2023-03-17T23:41:27.104Z,5.07
2023-03-17T23:43:30.969Z,5.95
2023-03-17T23:45:35.461Z,4.80
2023-03-17T23:47:39.485Z,6.47
2023-03-17T23:49:43.180Z,5.30
2023-03-17T23:51:48.291Z,4.55
2023-03-17T23:53:53.106Z,6.13
2023-03-17T23:55:58.163Z,5.70
2023-03-17T23:58:02.887Z,5.15
